Story, Wyoming
Current Conditions -  °F | °C
As of 9:53 PM on Friday 19 Dec 2014 (Local Time) from KSHR Reporting Station
Few Clouds Few Clouds  
Wind Chill: 18°   Ceiling: Unl
Heat Index: 24°   Visibility: 10mi
Dew Point: 19°   Wind: 5mph
Humidity: 81%   Direction: 200°SSW
Pressure: 29.88"   Gusts: NA
Location:  44.57°N, 106.89°W
Report Text: KSHR 200453Z AUTO 20004KT 10SM FEW100 M04/M07 A2988 RMK AO2 SLP152 T10441072
Loading
Personal Weather Stations






























Interactive Weather Map New forecast layout! Learn more

10-Day Weather Forecast

Advertisements
Track Severe Weather on mobile